Time;durP1;ratioP1;P1;durP2;ratioP2;P2;SDS_P1;SDS_P2;PMS_P1;PMS_P2;Temp;Humidity;BMP_temperature;BMP_pressure;BME280_temperature;BME280_humidity;BME280_pressure;Samples;Min_cycle;Max_cycle;Signal;HPM_P1;HPM_P2
2023/08/18 00:00:09;;;;;;;53.40;6.27;;;;;;;27.60;54.14;99615.91;7309202;19;130190;-39
2023/08/18 00:02:35;;;;;;;83.30;7.75;;;;;;;27.57;54.30;99603.84;7308812;19;130383;-38
2023/08/18 00:05:00;;;;;;;45.20;5.60;;;;;;;27.66;53.86;99617.81;7307533;19;129212;-39
2023/08/18 00:07:26;;;;;;;58.17;6.40;;;;;;;27.70;54.20;99608.56;7308902;19;129186;-39
2023/08/18 00:09:51;;;;;;;57.03;6.33;;;;;;;27.70;53.38;99604.06;7308319;19;129538;-39
2023/08/18 00:12:17;;;;;;;83.57;7.97;;;;;;;27.53;54.08;99607.88;7309368;19;130237;-38
2023/08/18 00:14:42;;;;;;;46.67;5.93;;;;;;;27.49;54.57;99605.72;7307083;19;129730;-38
2023/08/18 00:17:07;;;;;;;31.40;4.87;;;;;;;27.35;54.51;99596.78;7308568;19;129554;-38
2023/08/18 00:19:33;;;;;;;56.43;6.13;;;;;;;27.30;55.37;99600.94;7308082;19;129086;-37
2023/08/18 00:21:58;;;;;;;76.53;7.37;;;;;;;27.20;55.56;99597.69;7308452;19;130006;-38
2023/08/18 00:24:24;;;;;;;48.70;5.87;;;;;;;27.27;55.01;99603.91;7306512;19;129251;-36
2023/08/18 00:26:49;;;;;;;38.67;5.73;;;;;;;27.04;55.10;99595.16;7308745;19;129328;-39
2023/08/18 00:29:15;;;;;;;80.00;7.13;;;;;;;27.13;55.15;99596.72;7308510;19;130536;-37
2023/08/18 00:31:40;;;;;;;53.33;6.10;;;;;;;27.38;54.75;99599.06;7309508;19;130787;-37
2023/08/18 00:34:05;;;;;;;45.97;5.87;;;;;;;27.26;54.63;99581.97;7306433;19;129361;-37
2023/08/18 00:36:32;;;;;;;46.47;5.90;;;;;;;27.01;55.72;99591.03;7308553;19;129076;-37
2023/08/18 00:39:02;;;;;;;73.00;7.32;;;;;;;27.14;55.60;99593.13;7307029;19;130461;-38
2023/08/18 00:41:27;;;;;;;48.28;5.22;;;;;;;27.22;55.14;99588.56;7308914;19;130470;-37
2023/08/18 00:43:53;;;;;;;47.17;6.03;;;;;;;27.11;55.14;99567.06;7307543;19;129674;-37
2023/08/18 00:46:20;;;;;;;47.00;5.57;;;;;;;27.23;54.42;99578.84;7306179;19;129681;-36
2023/08/18 00:48:45;;;;;;;62.65;6.68;;;;;;;27.20;54.74;99584.50;7307985;19;129465;-36
2023/08/18 00:51:11;;;;;;;41.90;5.73;;;;;;;27.11;55.39;99580.25;7308472;19;129479;-38
2023/08/18 00:53:39;;;;;;;50.33;6.13;;;;;;;27.27;55.25;99582.78;7306999;19;129474;-36
2023/08/18 00:56:06;;;;;;;51.42;6.13;;;;;;;27.08;55.29;99581.44;7307475;19;131092;-37
2023/08/18 00:58:32;;;;;;;69.97;7.05;;;;;;;26.94;55.79;99577.72;7307480;19;129297;-36
2023/08/18 01:00:57;;;;;;;49.17;5.90;;;;;;;26.86;56.20;99574.31;7307707;19;130686;-36
2023/08/18 01:03:23;;;;;;;44.33;5.60;;;;;;;26.69;56.55;99549.84;7306512;19;129596;-37
2023/08/18 01:05:48;;;;;;;59.70;6.43;;;;;;;26.74;56.14;99573.88;7305066;19;129502;-36
2023/08/18 01:08:14;;;;;;;65.77;6.53;;;;;;;26.70;56.97;99571.78;7306659;19;129294;-37
2023/08/18 01:11:09;;;;;;;39.03;5.13;;;;;;;26.87;56.22;99571.50;7306847;19;129759;-37
2023/08/18 01:14:28;;;;;;;52.05;6.07;;;;;;;26.71;56.63;99563.69;7305922;19;130061;-36
2023/08/18 01:17:01;;;;;;;;;;;;;;;26.81;56.38;99564.28;7301846;19;129567;-36
2023/08/18 01:19:27;;;;;;;64.40;6.88;;;;;;;26.80;56.73;99567.94;7306871;19;131548;-39
2023/08/18 01:21:57;;;;;;;;;;;;;;;26.69;56.74;99570.13;7307861;19;130427;-38
2023/08/18 01:24:26;;;;;;;35.85;5.57;;;;;;;26.68;56.64;99574.59;7304696;19;128908;-39
2023/08/18 01:26:52;;;;;;;50.00;5.95;;;;;;;26.87;56.18;99574.13;7306840;19;129595;-37
2023/08/18 01:29:22;;;;;;;61.65;7.07;;;;;;;26.55;57.19;99569.00;7305250;19;130070;-37
2023/08/18 01:31:52;;;;;;;52.40;5.85;;;;;;;26.60;56.87;99564.03;7307162;19;129238;-37
2023/08/18 01:34:20;;;;;;;49.90;6.13;;;;;;;26.36;57.63;99564.13;7306007;19;128942;-37
2023/08/18 01:36:46;;;;;;;57.85;6.45;;;;;;;26.88;56.14;99564.41;7306313;19;130002;-39
2023/08/18 01:39:13;;;;;;;55.80;6.15;;;;;;;26.85;56.14;99568.22;7306837;19;130193;-38
2023/08/18 01:41:40;;;;;;;58.15;6.57;;;;;;;26.58;57.33;99563.38;7306489;19;129503;-38
2023/08/18 01:44:05;;;;;;;53.20;6.03;;;;;;;26.73;56.54;99556.41;7304504;19;129405;-38
2023/08/18 01:46:31;;;;;;;43.83;5.67;;;;;;;26.37;57.33;99549.97;7303490;19;129756;-38
2023/08/18 01:48:56;;;;;;;50.63;5.77;;;;;;;26.66;56.84;99544.91;7305342;19;129383;-35
2023/08/18 01:51:21;;;;;;;44.57;5.73;;;;;;;26.56;56.69;99557.47;7310559;19;129569;-37
2023/08/18 01:53:47;;;;;;;61.63;6.77;;;;;;;26.44;57.17;99561.50;7311561;19;129343;-38
2023/08/18 01:56:12;;;;;;;42.27;5.13;;;;;;;26.65;56.66;99559.09;7313744;19;129365;-38
2023/08/18 01:58:37;;;;;;;58.30;6.17;;;;;;;26.80;56.03;99557.38;7312797;19;130209;-39
2023/08/18 02:01:03;;;;;;;39.83;5.33;;;;;;;26.47;57.14;99560.31;7312413;19;130303;-37
2023/08/18 02:03:29;;;;;;;46.43;6.03;;;;;;;26.70;55.94;99540.94;7312065;19;129239;-39
2023/08/18 02:05:56;;;;;;;44.97;5.93;;;;;;;26.61;56.58;99541.94;7310838;19;129572;-38
2023/08/18 02:08:22;;;;;;;69.47;7.80;;;;;;;26.51;57.36;99566.91;7311629;19;130167;-38
2023/08/18 02:10:48;;;;;;;55.55;6.30;;;;;;;26.63;57.04;99568.97;7312752;19;129599;-37
2023/08/18 02:13:14;;;;;;;51.80;6.30;;;;;;;26.43;57.06;99565.09;7311405;19;129264;-36
2023/08/18 02:15:39;;;;;;;89.53;7.73;;;;;;;26.46;57.01;99559.50;7311699;19;129201;-37
2023/08/18 02:18:05;;;;;;;72.23;7.00;;;;;;;26.50;56.74;99555.53;7311826;19;129510;-35
2023/08/18 02:20:30;;;;;;;45.77;5.80;;;;;;;26.36;56.71;99542.25;7312243;19;130417;-39
2023/08/18 02:22:55;;;;;;;44.57;6.13;;;;;;;26.44;56.70;99564.13;7311509;19;128938;-39
2023/08/18 02:25:22;;;;;;;50.07;5.73;;;;;;;26.44;56.65;99566.78;7309111;19;129009;-38
2023/08/18 02:27:47;;;;;;;72.88;7.22;;;;;;;26.43;56.92;99559.84;7311828;19;129410;-38
2023/08/18 02:30:12;;;;;;;44.47;5.70;;;;;;;26.49;57.07;99553.91;7311595;19;129453;-37
2023/08/18 02:32:38;;;;;;;48.10;5.83;;;;;;;26.56;56.69;99564.56;7310952;19;128963;-38
2023/08/18 02:35:03;;;;;;;48.90;5.67;;;;;;;26.39;57.23;99557.72;7309492;19;129015;-36
2023/08/18 02:37:29;;;;;;;70.67;7.13;;;;;;;26.34;57.19;99550.34;7310247;19;130254;-38
2023/08/18 02:39:54;;;;;;;31.23;5.43;;;;;;;26.26;57.32;99560.88;7311148;19;129161;-38
2023/08/18 02:42:20;;;;;;;77.63;8.00;;;;;;;26.32;57.45;99562.84;7310161;19;130732;-37
2023/08/18 02:44:45;;;;;;;49.97;6.37;;;;;;;26.21;57.11;99534.25;7309377;19;129203;-37
2023/08/18 02:47:12;;;;;;;49.00;5.90;;;;;;;26.39;57.15;99561.19;7311646;19;131008;-37
2023/08/18 02:49:38;;;;;;;44.00;5.88;;;;;;;26.35;57.32;99562.50;7311367;19;131092;-37
2023/08/18 02:52:03;;;;;;;68.73;7.47;;;;;;;26.26;57.05;99562.72;7310698;19;129546;-38
2023/08/18 02:54:29;;;;;;;47.07;6.20;;;;;;;26.29;57.51;99557.09;7309182;19;129306;-38
2023/08/18 02:56:54;;;;;;;61.57;6.83;;;;;;;26.26;57.54;99558.25;7311190;19;129265;-37
2023/08/18 02:59:19;;;;;;;44.77;5.73;;;;;;;26.50;56.58;99547.63;7311557;19;129590;-38
2023/08/18 03:01:45;;;;;;;37.50;5.33;;;;;;;26.41;57.12;99551.25;7310017;19;129764;-38
2023/08/18 03:04:10;;;;;;;58.23;6.27;;;;;;;26.26;57.14;99558.25;7309347;19;128934;-39
2023/08/18 03:06:35;;;;;;;53.83;6.77;;;;;;;26.32;56.38;99541.78;7307044;19;129683;-37
2023/08/18 03:09:01;;;;;;;49.53;5.50;;;;;;;26.30;56.75;99556.94;7308685;19;129724;-38
2023/08/18 03:11:27;;;;;;;49.43;6.27;;;;;;;26.41;56.59;99567.09;7311395;19;129211;-39
2023/08/18 03:13:52;;;;;;;67.20;7.40;;;;;;;26.43;57.21;99564.28;7308676;19;129392;-39
2023/08/18 03:16:18;;;;;;;62.37;7.13;;;;;;;26.31;57.08;99566.47;7312384;19;130451;-37
2023/08/18 03:18:44;;;;;;;54.30;6.17;;;;;;;26.34;56.98;99574.06;7309845;19;130894;-37
2023/08/18 03:21:09;;;;;;;59.10;6.87;;;;;;;26.29;57.02;99565.84;7310503;19;129404;-37
2023/08/18 03:23:34;;;;;;;58.53;6.93;;;;;;;26.33;57.11;99569.75;7309434;19;129090;-37
2023/08/18 03:26:02;;;;;;;48.47;6.50;;;;;;;26.34;57.25;99567.97;7308494;19;130312;-36
2023/08/18 03:28:28;;;;;;;51.47;6.15;;;;;;;26.24;56.81;99564.69;7310257;19;129815;-36
2023/08/18 03:30:59;;;;;;;54.15;6.47;;;;;;;26.28;57.31;99566.81;7310046;19;129112;-36
2023/08/18 03:33:24;;;;;;;63.97;6.63;;;;;;;26.28;57.64;99556.28;7308707;19;130345;-37
2023/08/18 03:35:50;;;;;;;66.97;7.20;;;;;;;26.33;57.11;99563.69;7309636;19;129570;-36
2023/08/18 03:38:15;;;;;;;56.63;6.60;;;;;;;26.37;56.85;99564.97;7308632;19;129473;-36
2023/08/18 03:40:40;;;;;;;49.00;5.87;;;;;;;26.33;57.05;99556.59;7309780;19;129263;-36
2023/08/18 03:43:05;;;;;;;69.60;7.53;;;;;;;26.18;57.50;99571.47;7308851;19;128962;-37
2023/08/18 03:45:31;;;;;;;39.93;6.27;;;;;;;26.26;56.81;99573.25;7309379;19;131433;-36
2023/08/18 03:47:56;;;;;;;62.33;7.00;;;;;;;26.40;56.51;99573.38;7309128;19;129088;-36
2023/08/18 03:50:22;;;;;;;55.97;6.00;;;;;;;26.38;56.85;99577.97;7309429;19;128909;-37
2023/08/18 03:52:47;;;;;;;68.60;7.07;;;;;;;26.27;57.04;99577.53;7308910;19;129439;-36
2023/08/18 03:55:13;;;;;;;41.77;6.07;;;;;;;26.23;57.01;99563.06;7307194;19;130144;-36
2023/08/18 03:57:38;;;;;;;22.20;5.47;;;;;;;26.14;57.58;99585.16;7307683;19;131247;-36
2023/08/18 04:00:04;;;;;;;62.80;7.30;;;;;;;26.27;57.05;99586.28;7307516;19;129082;-37
2023/08/18 04:02:29;;;;;;;60.53;7.23;;;;;;;26.15;56.80;99592.06;7308791;19;129464;-38
2023/08/18 04:04:55;;;;;;;114.93;10.53;;;;;;;26.24;57.12;99586.63;7301677;19;129170;-37
2023/08/18 04:07:20;;;;;;;47.83;6.67;;;;;;;26.27;56.88;99586.28;7309088;19;129292;-37
2023/08/18 04:09:46;;;;;;;135.27;12.07;;;;;;;26.33;56.96;99590.84;7305546;19;129058;-37
2023/08/18 04:12:11;;;;;;;47.57;6.70;;;;;;;26.18;57.84;99592.53;7308166;19;129716;-37
2023/08/18 04:14:36;;;;;;;49.90;6.27;;;;;;;26.04;57.30;99580.09;7305691;19;130047;-37
2023/08/18 04:17:02;;;;;;;58.10;6.50;;;;;;;26.26;57.40;99589.88;7304774;19;131167;-38
2023/08/18 04:19:27;;;;;;;76.27;8.00;;;;;;;26.29;56.36;99581.66;7308281;19;129532;-38
2023/08/18 04:21:53;;;;;;;60.87;7.47;;;;;;;26.13;57.23;99600.13;7306051;19;129221;-38
2023/08/18 04:24:18;;;;;;;49.53;6.40;;;;;;;26.11;57.63;99610.03;7305853;19;129735;-36
2023/08/18 04:26:43;;;;;;;56.83;6.87;;;;;;;26.14;57.90;99601.78;7304028;19;129761;-36
2023/08/18 04:29:09;;;;;;;56.17;6.67;;;;;;;26.06;57.36;99586.00;7307785;19;130588;-36
2023/08/18 04:31:34;;;;;;;55.07;6.53;;;;;;;26.16;57.86;99609.53;7302273;19;131604;-37
2023/08/18 04:34:00;;;;;;;58.60;6.53;;;;;;;26.14;57.62;99596.53;7305938;19;130225;-36
2023/08/18 04:36:25;;;;;;;55.47;7.07;;;;;;;26.15;57.15;99611.34;7305508;19;131243;-37
2023/08/18 04:38:50;;;;;;;59.63;6.77;;;;;;;26.00;58.14;99609.53;7307734;19;129050;-36
2023/08/18 04:41:16;;;;;;;69.77;7.73;;;;;;;26.00;58.25;99615.59;7306519;19;129093;-37
2023/08/18 04:43:41;;;;;;;53.07;6.87;;;;;;;26.30;58.12;99607.00;7304514;19;129398;-36
2023/08/18 04:46:07;;;;;;;68.93;7.10;;;;;;;26.35;56.92;99615.22;7304767;19;131856;-36
2023/08/18 04:48:32;;;;;;;54.17;7.27;;;;;;;26.23;57.38;99615.78;7306042;19;131049;-36
2023/08/18 04:50:58;;;;;;;64.77;7.40;;;;;;;26.22;57.50;99617.59;7305191;19;129393;-37
2023/08/18 04:53:23;;;;;;;48.23;6.10;;;;;;;26.60;56.74;99614.16;7303165;19;129714;-37
2023/08/18 04:55:49;;;;;;;67.40;7.23;;;;;;;26.52;56.80;99616.00;7307528;19;129706;-36
2023/08/18 04:58:15;;;;;;;76.47;8.00;;;;;;;26.18;57.56;99618.91;7304711;19;129515;-36
2023/08/18 05:00:41;;;;;;;51.53;6.53;;;;;;;26.03;57.68;99602.13;7308359;19;129124;-37
2023/08/18 05:03:07;;;;;;;86.30;8.90;;;;;;;26.11;57.92;99623.22;7304034;19;130804;-37
2023/08/18 05:05:34;;;;;;;66.43;7.00;;;;;;;26.09;57.74;99619.09;7305325;19;131376;-36
2023/08/18 05:07:59;;;;;;;66.80;7.32;;;;;;;25.97;58.40;99621.22;7307274;19;129815;-37
2023/08/18 05:10:24;;;;;;;52.07;6.80;;;;;;;26.12;58.07;99619.59;7303937;19;129779;-36
2023/08/18 05:12:50;;;;;;;98.10;9.57;;;;;;;25.95;58.27;99622.38;7306001;19;129890;-36
2023/08/18 05:15:16;;;;;;;167.00;13.53;;;;;;;26.21;57.14;99628.28;7300208;19;129766;-36
2023/08/18 05:17:42;;;;;;;45.47;6.07;;;;;;;26.13;57.91;99621.22;7305971;19;129012;-36
2023/08/18 05:20:07;;;;;;;67.67;7.30;;;;;;;26.72;56.30;99626.00;7300293;19;131529;-36
2023/08/18 05:22:33;;;;;;;52.67;6.73;;;;;;;26.66;56.05;99621.41;7302921;19;131038;-39
2023/08/18 05:24:58;;;;;;;76.43;7.57;;;;;;;26.56;56.40;99623.38;7303380;19;128963;-39
2023/08/18 05:27:24;;;;;;;40.23;5.83;;;;;;;26.75;55.76;99619.56;7311930;19;129599;-37
2023/08/18 05:29:50;;;;;;;51.57;6.30;;;;;;;26.46;56.34;99611.41;7308568;19;129326;-38
2023/08/18 05:32:15;;;;;;;69.83;7.50;;;;;;;26.33;57.28;99622.47;7311720;19;129781;-38
2023/08/18 05:34:40;;;;;;;82.73;8.30;;;;;;;26.28;56.79;99624.00;7310641;19;130581;-38
2023/08/18 05:37:06;;;;;;;54.07;6.63;;;;;;;26.37;57.10;99629.06;7311854;19;129064;-37
2023/08/18 05:39:31;;;;;;;29.70;5.33;;;;;;;26.26;57.08;99616.22;7311591;19;129079;-40
2023/08/18 05:41:57;;;;;;;59.33;7.20;;;;;;;26.18;56.92;99618.91;7312903;19;131390;-39
2023/08/18 05:44:22;;;;;;;45.13;6.80;;;;;;;26.06;57.63;99615.00;7309910;19;131030;-38
2023/08/18 05:46:48;;;;;;;59.57;7.13;;;;;;;26.27;57.36;99617.91;7310644;19;130009;-39
2023/08/18 05:49:13;;;;;;;62.27;7.33;;;;;;;26.52;56.64;99611.56;7311365;19;129654;-39
2023/08/18 05:51:42;;;;;;;71.83;7.93;;;;;;;26.18;57.26;99613.63;7312752;19;129437;-38
2023/08/18 05:54:09;;;;;;;33.60;5.63;;;;;;;26.29;57.30;99610.66;7312281;19;130611;-38
2023/08/18 05:56:34;;;;;;;80.30;8.38;;;;;;;26.18;58.03;99618.91;7312355;19;129986;-39
2023/08/18 05:58:59;;;;;;;46.90;6.53;;;;;;;26.06;57.59;99619.44;7312626;19;129372;-37
2023/08/18 06:01:25;;;;;;;70.83;7.80;;;;;;;26.07;57.97;99619.25;7312726;19;129458;-37
2023/08/18 06:03:50;;;;;;;61.67;7.97;;;;;;;26.05;58.02;99613.31;7310401;19;130311;-39
2023/08/18 06:06:16;;;;;;;46.30;6.50;;;;;;;26.00;58.19;99615.59;7311887;19;129059;-38
2023/08/18 06:08:41;;;;;;;33.97;6.10;;;;;;;26.14;57.79;99616.78;7311986;19;129302;-38
2023/08/18 06:11:07;;;;;;;61.43;7.30;;;;;;;25.90;58.48;99614.97;7312669;19;130755;-37
2023/08/18 06:13:32;;;;;;;72.73;7.50;;;;;;;25.96;58.45;99618.75;7311417;19;131102;-40
2023/08/18 06:16:02;;;;;;;53.17;7.00;;;;;;;26.27;57.88;99622.34;7312438;19;129511;-39
2023/08/18 06:18:27;;;;;;;75.05;8.73;;;;;;;26.44;57.25;99614.22;7308007;19;130606;-38
2023/08/18 06:20:53;;;;;;;71.63;8.00;;;;;;;26.34;57.42;99599.59;7311484;19;129608;-37
2023/08/18 06:23:18;;;;;;;54.47;6.97;;;;;;;26.73;56.99;99624.16;7312056;19;130351;-37
2023/08/18 06:25:44;;;;;;;42.53;6.80;;;;;;;26.86;56.17;99630.53;7310459;19;130487;-37
2023/08/18 06:28:09;;;;;;;52.80;7.17;;;;;;;26.87;56.15;99623.47;7312713;19;131422;-41
2023/08/18 06:30:34;;;;;;;70.83;8.57;;;;;;;26.61;57.06;99626.34;7310315;19;131126;-39
2023/08/18 06:33:00;;;;;;;45.77;7.37;;;;;;;26.71;56.54;99624.34;7310857;19;130173;-39
2023/08/18 06:35:25;;;;;;;45.70;7.27;;;;;;;26.76;56.53;99619.38;7309097;19;130731;-38
2023/08/18 06:37:51;;;;;;;65.83;8.30;;;;;;;26.84;56.36;99624.59;7310548;19;129041;-38
2023/08/18 06:40:16;;;;;;;59.53;8.13;;;;;;;26.82;56.23;99615.25;7310034;19;129690;-37
2023/08/18 06:42:41;;;;;;;51.77;7.50;;;;;;;27.18;55.46;99623.44;7310770;19;129628;-40
2023/08/18 06:45:08;;;;;;;58.80;8.07;;;;;;;27.34;55.02;99623.34;7308986;19;129445;-38
2023/08/18 06:47:33;;;;;;;59.05;8.52;;;;;;;27.40;54.92;99622.66;7310968;19;129017;-39
2023/08/18 06:49:59;;;;;;;39.57;7.50;;;;;;;27.24;55.37;99612.19;7310848;19;130036;-43
2023/08/18 06:52:26;;;;;;;104.63;10.65;;;;;;;27.04;55.61;99608.34;7310857;19;130798;-37
2023/08/18 06:54:51;;;;;;;59.92;8.27;;;;;;;27.35;55.41;99619.72;7305014;19;129678;-37
2023/08/18 06:57:16;;;;;;;73.97;9.20;;;;;;;26.90;56.21;99602.84;7309427;19;129841;-37
2023/08/18 06:59:42;;;;;;;103.37;10.57;;;;;;;27.54;55.19;99624.50;7307637;19;129603;-39
2023/08/18 07:02:07;;;;;;;67.70;8.80;;;;;;;27.67;54.26;99624.72;7309079;19;129378;-39
2023/08/18 07:04:32;;;;;;;53.63;7.93;;;;;;;27.66;54.16;99621.28;7307271;19;129035;-36
2023/08/18 07:06:58;;;;;;;76.40;8.60;;;;;;;27.62;54.06;99619.16;7306653;19;129989;-37
2023/08/18 07:09:23;;;;;;;52.23;7.13;;;;;;;27.78;53.96;99616.41;7306867;19;130037;-37
2023/08/18 07:11:49;;;;;;;62.20;8.30;;;;;;;27.56;54.50;99606.69;7310612;19;129368;-39
2023/08/18 07:14:14;;;;;;;77.43;9.13;;;;;;;27.38;55.02;99620.19;7307845;19;129378;-39
2023/08/18 07:16:39;;;;;;;69.70;8.50;;;;;;;27.64;54.45;99620.63;7309307;19;129471;-37
2023/08/18 07:19:05;;;;;;;61.77;7.57;;;;;;;27.63;54.70;99615.53;7310292;19;130082;-37
2023/08/18 07:21:30;;;;;;;52.03;8.50;;;;;;;27.38;55.13;99616.72;7310411;19;130373;-39
2023/08/18 07:23:55;;;;;;;46.40;7.17;;;;;;;27.43;55.30;99611.72;7309034;19;130136;-36
2023/08/18 07:26:21;;;;;;;97.80;10.33;;;;;;;27.55;55.12;99616.41;7308232;19;129088;-39
2023/08/18 07:28:46;;;;;;;56.17;7.53;;;;;;;27.38;55.32;99619.38;7308971;19;129481;-38
2023/08/18 07:31:11;;;;;;;80.73;9.50;;;;;;;27.51;55.06;99619.59;7308843;19;130224;-37
2023/08/18 07:33:37;;;;;;;45.17;7.33;;;;;;;27.76;54.18;99619.22;7307562;19;129440;-39
2023/08/18 07:36:03;;;;;;;63.87;8.53;;;;;;;27.42;55.45;99620.66;7310806;19;130264;-36
2023/08/18 07:38:32;;;;;;;51.73;7.10;;;;;;;27.47;55.18;99624.41;7308005;19;129132;-40
2023/08/18 07:40:58;;;;;;;50.67;7.60;;;;;;;27.65;54.84;99619.63;7308881;19;129539;-37
2023/08/18 07:43:23;;;;;;;78.83;9.73;;;;;;;27.48;55.06;99626.06;7307052;19;129246;-38
2023/08/18 07:45:49;;;;;;;67.10;8.73;;;;;;;27.54;54.24;99619.22;7308150;19;129682;-37
2023/08/18 07:48:14;;;;;;;50.37;7.93;;;;;;;27.22;55.93;99624.72;7307501;19;129918;-37
2023/08/18 07:50:41;;;;;;;47.90;7.67;;;;;;;27.52;55.27;99632.63;7307041;19;130200;-38
2023/08/18 07:53:06;;;;;;;;;;;;;;;27.23;55.36;99606.06;7308882;19;129682;-37
2023/08/18 07:55:32;;;;;;;76.82;9.57;;;;;;;27.35;55.73;99625.00;7308947;19;129059;-37
2023/08/18 07:57:57;;;;;;;47.47;7.63;;;;;;;27.35;55.28;99630.28;7308645;19;129958;-38
2023/08/18 08:00:22;;;;;;;64.93;9.00;;;;;;;27.48;55.56;99626.06;7305913;19;130481;-37
2023/08/18 08:02:49;;;;;;;52.73;8.20;;;;;;;27.49;55.21;99622.41;7303104;19;129944;-42
2023/08/18 08:05:21;;;;;;;77.97;9.38;;;;;;;27.86;54.26;99613.69;7299959;19;129850;-40
2023/08/18 08:07:47;;;;;;;53.88;8.20;;;;;;;27.74;54.17;99617.75;7309391;19;129200;-39
2023/08/18 08:10:13;;;;;;;44.97;7.28;;;;;;;27.40;55.55;99617.38;7307654;19;129664;-38
2023/08/18 08:12:39;;;;;;;71.40;8.30;;;;;;;27.55;55.18;99607.69;7307847;19;129339;-38
2023/08/18 08:15:08;;;;;;;83.40;9.82;;;;;;;27.66;54.69;99617.81;7307252;19;129838;-40
2023/08/18 08:17:33;;;;;;;52.45;7.50;;;;;;;27.53;54.54;99626.34;7307456;19;130352;-38
2023/08/18 08:20:14;;;;;;;40.17;7.00;;;;;;;27.42;55.36;99620.66;7305067;19;129872;-36
2023/08/18 08:22:40;;;;;;;49.53;7.40;;;;;;;27.74;54.04;99615.09;7302761;19;130949;-43
2023/08/18 08:25:05;;;;;;;76.97;8.87;;;;;;;27.65;54.47;99621.47;7306874;19;129893;-34
2023/08/18 08:27:31;;;;;;;67.47;8.33;;;;;;;27.39;55.47;99615.72;7306277;19;129298;-36
2023/08/18 08:29:56;;;;;;;50.40;7.90;;;;;;;27.42;55.25;99615.38;7306107;19;129955;-42
2023/08/18 08:32:22;;;;;;;78.60;9.23;;;;;;;27.52;55.03;99622.06;7306462;19;129604;-37
2023/08/18 08:34:49;;;;;;;56.43;8.10;;;;;;;27.41;55.50;99611.91;7305381;19;129930;-40
2023/08/18 08:37:15;;;;;;;51.78;7.88;;;;;;;27.34;56.13;99618.06;7307967;19;129949;-38
2023/08/18 08:39:40;;;;;;;49.53;7.60;;;;;;;27.16;56.12;99613.03;7308374;19;130427;-34
2023/08/18 08:42:06;;;;;;;68.60;8.67;;;;;;;27.44;55.68;99613.38;7308107;19;129864;-39
2023/08/18 08:44:31;;;;;;;46.10;7.23;;;;;;;27.39;55.33;99610.44;7306809;19;129454;-35
2023/08/18 08:47:00;;;;;;;58.17;7.87;;;;;;;27.16;56.34;99614.84;7302826;19;130326;-41
2023/08/18 08:49:28;;;;;;;52.97;7.93;;;;;;;27.15;55.98;99615.88;7305974;19;129279;-36
2023/08/18 08:51:57;;;;;;;37.05;7.32;;;;;;;26.88;57.44;99618.00;7307200;19;128991;-38
2023/08/18 08:54:28;;;;;;;66.65;8.23;;;;;;;27.15;56.51;99623.78;7303448;19;129456;-39
2023/08/18 08:56:54;;;;;;;47.50;7.65;;;;;;;27.15;56.13;99618.50;7307003;19;129490;-38
2023/08/18 08:59:20;;;;;;;58.53;7.83;;;;;;;27.38;55.92;99620.19;7307908;19;129806;-39
2023/08/18 09:01:46;;;;;;;54.83;7.47;;;;;;;27.38;56.22;99622.00;7313754;19;130318;-36
2023/08/18 09:04:11;;;;;;;60.72;7.97;;;;;;;27.17;56.46;99624.44;7311325;19;128968;-39
2023/08/18 09:06:37;;;;;;;42.10;6.90;;;;;;;27.21;56.18;99609.88;7313945;19;130133;-37
2023/08/18 09:09:03;;;;;;;78.23;9.80;;;;;;;26.86;57.47;99614.72;7314342;19;130701;-39
2023/08/18 09:11:41;;;;;;;58.07;9.00;;;;;;;26.92;57.69;99614.00;7315011;19;128894;-34
2023/08/18 09:14:07;;;;;;;69.50;8.40;;;;;;;27.22;56.43;99609.69;7311819;19;129374;-39
2023/08/18 09:16:33;;;;;;;48.73;7.40;;;;;;;27.36;55.47;99608.16;7312511;19;129371;-41
2023/08/18 09:19:00;;;;;;;53.47;8.33;;;;;;;27.04;56.57;99608.34;7313809;19;130006;-38
2023/08/18 09:21:26;;;;;;;51.45;8.07;;;;;;;27.02;57.07;99591.88;7312166;19;130377;-39
2023/08/18 09:23:56;;;;;;;76.23;9.03;;;;;;;27.34;56.32;99595.13;7312922;19;129159;-38
2023/08/18 09:26:21;;;;;;;56.97;8.07;;;;;;;27.39;56.07;99599.88;7313043;19;129463;-39
2023/08/18 09:28:47;;;;;;;42.53;6.93;;;;;;;27.44;55.85;99597.53;7314495;19;129659;-39
2023/08/18 09:31:12;;;;;;;50.40;6.90;;;;;;;27.34;56.22;99604.84;7313838;19;129248;-37
2023/08/18 09:33:38;;;;;;;50.33;7.50;;;;;;;27.31;56.19;99592.84;7312228;19;129842;-42
2023/08/18 09:36:03;;;;;;;81.30;9.27;;;;;;;27.48;56.02;99602.28;7314345;19;129318;-39
2023/08/18 09:38:38;;;;;;;54.93;8.43;;;;;;;27.47;55.79;99597.19;7313369;19;130300;-38
2023/08/18 09:41:03;;;;;;;57.72;7.85;;;;;;;27.30;56.37;99593.03;7313091;19;129030;-36
2023/08/18 09:43:29;;;;;;;62.63;8.00;;;;;;;27.26;56.80;99594.31;7310926;19;129300;-36
2023/08/18 09:45:57;;;;;;;53.93;7.50;;;;;;;27.48;55.68;99585.63;7312681;19;129076;-41
2023/08/18 09:48:26;;;;;;;47.95;7.25;;;;;;;27.50;55.57;99588.91;7312625;19;130459;-39
2023/08/18 09:50:53;;;;;;;78.03;9.07;;;;;;;27.46;55.51;99584.97;7312859;19;129779;-39
2023/08/18 09:53:24;;;;;;;61.13;8.48;;;;;;;27.22;55.62;99571.94;7312794;19;129659;-36
2023/08/18 09:55:53;;;;;;;57.72;7.57;;;;;;;27.48;55.85;99582.97;7312914;19;129537;-35
2023/08/18 09:58:43;;;;;;;49.25;7.20;;;;;;;27.38;56.00;99583.22;7312951;19;130252;-37
2023/08/18 10:01:12;;;;;;;58.83;7.65;;;;;;;27.48;55.43;99564.50;7312497;19;129150;-36
2023/08/18 10:03:38;;;;;;;40.05;6.72;;;;;;;27.44;55.72;99584.31;7312859;19;130711;-39
2023/08/18 10:06:07;;;;;;;44.97;7.22;;;;;;;27.28;56.17;99587.94;7311691;19;129527;-39
2023/08/18 10:08:33;;;;;;;64.85;7.88;;;;;;;27.32;56.52;99585.75;7312874;19;130883;-39
2023/08/18 10:10:59;;;;;;;58.23;8.33;;;;;;;27.24;56.73;99585.78;7312115;19;128983;-39
2023/08/18 10:13:25;;;;;;;47.30;6.90;;;;;;;27.44;55.81;99576.41;7312641;19;129430;-40
2023/08/18 10:15:52;;;;;;;60.60;7.82;;;;;;;27.33;56.73;99579.47;7312172;19;130026;-40
2023/08/18 10:18:18;;;;;;;65.47;8.02;;;;;;;27.36;56.56;99585.22;7311821;19;129655;-41
2023/08/18 10:20:49;;;;;;;;;;;;;;;27.35;56.94;99588.03;7312216;19;129691;-39
2023/08/18 10:23:15;;;;;;;56.22;7.53;;;;;;;27.41;56.37;99587.31;7311746;19;129069;-39
2023/08/18 10:25:43;;;;;;;47.35;7.28;;;;;;;27.34;56.27;99581.09;7312154;19;129307;-39
2023/08/18 10:28:10;;;;;;;72.43;8.50;;;;;;;27.19;56.22;99583.66;7311236;19;129269;-39
2023/08/18 10:30:35;;;;;;;49.83;7.30;;;;;;;27.36;55.45;99571.19;7312484;19;129675;-39
2023/08/18 10:33:06;;;;;;;44.03;6.93;;;;;;;27.37;56.15;99586.03;7311501;19;129194;-38
2023/08/18 10:35:32;;;;;;;41.70;7.07;;;;;;;27.25;55.95;99553.09;7311326;19;130926;-37
2023/08/18 10:38:03;;;;;;;56.80;7.40;;;;;;;27.33;56.21;99582.09;7310796;19;129694;-39
2023/08/18 10:40:34;;;;;;;59.67;7.93;;;;;;;27.23;56.46;99578.84;7312104;19;129404;-40
2023/08/18 10:43:12;;;;;;;61.50;7.85;;;;;;;27.25;56.36;99568.94;7311164;19;128784;-37
2023/08/18 10:45:39;;;;;;;30.90;6.25;;;;;;;27.29;56.39;99583.47;7311746;19;130646;-40
2023/08/18 10:48:06;;;;;;;50.88;6.97;;;;;;;27.31;56.31;99584.94;7310972;19;130347;-40
2023/08/18 10:50:34;;;;;;;52.55;6.90;;;;;;;27.34;55.91;99567.91;7310786;19;130468;-41
2023/08/18 10:53:01;;;;;;;49.17;7.55;;;;;;;27.36;56.17;99585.22;7310708;19;128838;-41
2023/08/18 10:55:27;;;;;;;56.72;7.80;;;;;;;27.37;56.11;99580.75;7309182;19;130596;-38
2023/08/18 10:57:53;;;;;;;49.97;7.03;;;;;;;27.27;56.15;99580.16;7311028;19;129714;-40
2023/08/18 11:00:18;;;;;;;59.77;7.67;;;;;;;27.37;56.49;99576.28;7311426;19;130090;-38
2023/08/18 11:02:49;;;;;;;58.13;7.57;;;;;;;27.38;56.46;99558.63;7311470;19;129814;-39
2023/08/18 11:05:21;;;;;;;42.53;6.72;;;;;;;27.29;56.36;99573.72;7309577;19;130333;-37
2023/08/18 11:07:47;;;;;;;51.03;7.57;;;;;;;27.28;56.35;99572.09;7307403;19;129338;-38
2023/08/18 11:10:23;;;;;;;35.47;6.27;;;;;;;27.31;56.05;99565.63;7311264;19;129818;-37
2023/08/18 11:12:51;;;;;;;62.33;8.05;;;;;;;27.24;56.48;99546.19;7308611;19;129408;-41